Time;durP1;ratioP1;P1;durP2;ratioP2;P2;SDS_P1;SDS_P2;PMS_P1;PMS_P2;Temp;Humidity;BMP_temperature;BMP_pressure;BME280_temperature;BME280_humidity;BME280_pressure;Samples;Min_cycle;Max_cycle;Signal;HPM_P1;HPM_P2
2022/11/23 00:00:20;;;;;;;1.15;0.50;;;18.30;99.90;;;;;;7407160;19;19923;-32
2022/11/23 00:02:54;;;;;;;0.95;0.50;;;18.20;99.90;;;;;;7407284;19;19950;-33
2022/11/23 00:05:27;;;;;;;1.02;0.30;;;18.30;99.90;;;;;;7408825;19;19970;-32
2022/11/23 00:07:56;;;;;;;0.93;0.28;;;18.30;99.90;;;;;;7407312;19;20274;-34
2022/11/23 00:10:26;;;;;;;1.25;0.70;;;18.20;99.90;;;;;;7407271;19;19926;-33
2022/11/23 00:12:55;;;;;;;1.40;1.00;;;18.20;99.90;;;;;;7406702;19;19919;-32
2022/11/23 00:15:25;;;;;;;;;;;18.20;99.90;;;;;;7407675;19;19970;-32
2022/11/23 00:18:01;;;;;;;0.73;0.50;;;18.20;99.90;;;;;;7406123;19;19922;-32
2022/11/23 00:20:31;;;;;;;0.45;0.15;;;18.20;99.90;;;;;;7406320;19;20357;-32
2022/11/23 00:23:00;;;;;;;1.55;0.45;;;18.20;99.90;;;;;;7409716;19;20332;-32
2022/11/23 00:25:30;;;;;;;;;;;18.10;99.90;;;;;;7408471;19;19926;-32
2022/11/23 00:28:05;;;;;;;0.50;0.13;;;18.10;99.90;;;;;;7405221;19;20261;-33
2022/11/23 00:30:34;;;;;;;0.80;0.10;;;18.10;99.90;;;;;;7405753;19;20260;-33
2022/11/23 00:33:06;;;;;;;0.77;0.22;;;18.10;99.90;;;;;;7405089;19;19921;-32
2022/11/23 00:35:35;;;;;;;0.70;0.15;;;18.10;99.90;;;;;;7405494;19;19948;-32
2022/11/23 00:38:04;;;;;;;1.10;0.32;;;18.10;99.90;;;;;;7406257;19;19934;-32
2022/11/23 00:40:35;;;;;;;0.70;0.13;;;18.10;99.90;;;;;;7405602;19;20333;-32
2022/11/23 00:43:04;;;;;;;1.08;0.25;;;18.10;99.90;;;;;;7405345;19;20394;-32
2022/11/23 00:45:34;;;;;;;0.70;0.20;;;18.10;99.90;;;;;;7404659;19;19915;-32
2022/11/23 00:48:07;;;;;;;1.58;0.57;;;18.10;99.90;;;;;;7410063;19;20325;-32
2022/11/23 00:50:37;;;;;;;1.08;0.50;;;18.00;99.90;;;;;;7405295;19;19915;-32
2022/11/23 00:53:06;;;;;;;0.85;0.50;;;18.00;99.90;;;;;;7405105;19;19919;-32
2022/11/23 00:55:36;;;;;;;1.10;0.13;;;18.00;99.90;;;;;;7406381;19;19931;-32
2022/11/23 00:58:10;;;;;;;2.22;0.60;;;18.00;99.90;;;;;;7405066;19;19914;-33
2022/11/23 01:00:43;;;;;;;0.68;0.08;;;18.00;99.90;;;;;;7404926;19;20340;-32
2022/11/23 01:03:16;;;;;;;1.35;0.60;;;18.00;99.90;;;;;;7407603;19;19997;-32
2022/11/23 01:05:45;;;;;;;1.00;0.22;;;18.00;99.90;;;;;;7404876;19;19939;-32
2022/11/23 01:08:14;;;;;;;1.48;0.70;;;18.00;99.90;;;;;;7402708;19;20337;-32
2022/11/23 01:10:44;;;;;;;1.75;0.40;;;18.00;99.90;;;;;;7406809;19;19935;-33
2022/11/23 01:13:14;;;;;;;1.10;0.55;;;18.00;99.90;;;;;;7407805;19;19921;-33
2022/11/23 01:15:50;;;;;;;0.73;0.22;;;18.00;99.90;;;;;;7402979;19;19943;-33
2022/11/23 01:18:30;;;;;;;0.75;0.22;;;17.90;99.90;;;;;;7408360;19;19911;-32
2022/11/23 01:21:02;;;;;;;1.23;0.50;;;17.90;99.90;;;;;;7404905;19;19922;-32
2022/11/23 01:23:33;;;;;;;1.80;0.60;;;17.90;99.90;;;;;;7405213;19;19926;-32
2022/11/23 01:26:07;;;;;;;1.02;0.60;;;17.90;99.90;;;;;;7405939;19;19919;-32
2022/11/23 01:28:43;;;;;;;0.90;0.40;;;17.90;99.90;;;;;;7405346;19;19925;-32
2022/11/23 01:31:14;;;;;;;1.55;0.50;;;17.90;99.90;;;;;;7407267;19;19933;-32
2022/11/23 01:33:47;;;;;;;0.90;0.20;;;17.90;99.90;;;;;;7404893;19;19923;-32
2022/11/23 01:36:21;;;;;;;0.75;0.22;;;17.90;99.90;;;;;;7404340;19;19922;-32
2022/11/23 01:38:54;;;;;;;1.05;0.43;;;17.90;99.90;;;;;;7407209;19;19926;-32
2022/11/23 01:41:25;;;;;;;1.33;0.50;;;17.90;99.90;;;;;;7408154;19;19946;-32
2022/11/23 01:43:55;;;;;;;0.40;0.15;;;17.80;99.90;;;;;;7405793;19;20266;-32
2022/11/23 01:46:36;;;;;;;0.80;0.47;;;17.80;99.90;;;;;;7405216;19;19919;-32
2022/11/23 01:49:09;;;;;;;1.30;0.45;;;17.90;99.90;;;;;;7402956;19;19978;-32
2022/11/23 01:51:42;;;;;;;0.90;0.65;;;17.80;99.90;;;;;;7403465;19;20354;-32
2022/11/23 01:54:16;;;;;;;1.08;0.43;;;17.80;99.90;;;;;;7403426;19;19919;-32
2022/11/23 01:56:48;;;;;;;0.80;0.10;;;17.80;99.90;;;;;;7406097;19;20233;-31
2022/11/23 01:59:20;;;;;;;1.05;0.22;;;17.80;99.90;;;;;;7406037;19;19926;-32
2022/11/23 02:01:50;;;;;;;1.10;0.40;;;17.80;99.90;;;;;;7403652;19;20398;-32
2022/11/23 02:04:29;;;;;;;0.82;0.22;;;17.80;99.90;;;;;;7406178;19;19994;-32
2022/11/23 02:07:10;;;;;;;0.60;0.20;;;17.80;99.90;;;;;;7404062;19;19921;-32
2022/11/23 02:09:51;;;;;;;1.05;0.95;;;17.80;99.90;;;;;;7401496;19;20474;-32
2022/11/23 02:12:21;;;;;;;0.50;0.22;;;17.80;99.90;;;;;;7401488;19;19914;-32
2022/11/23 02:14:50;;;;;;;;;;;17.80;99.90;;;;;;7404831;19;19915;-32
2022/11/23 02:17:22;;;;;;;1.45;0.20;;;17.80;99.90;;;;;;7404791;19;20310;-32
2022/11/23 02:20:04;;;;;;;1.00;0.50;;;17.80;99.90;;;;;;7403360;19;19914;-32
2022/11/23 02:22:40;;;;;;;0.63;0.20;;;17.80;99.90;;;;;;7402539;19;19931;-32
2022/11/23 02:25:16;;;;;;;0.85;0.20;;;17.80;99.90;;;;;;7402397;19;19918;-32
2022/11/23 02:27:48;;;;;;;0.63;0.13;;;17.80;99.90;;;;;;7403624;19;19914;-32
2022/11/23 02:30:23;;;;;;;1.00;0.45;;;17.70;99.90;;;;;;7405386;19;20013;-32
2022/11/23 02:32:54;;;;;;;0.90;0.40;;;17.70;99.90;;;;;;7409728;19;19934;-32
2022/11/23 02:35:25;;;;;;;1.00;0.50;;;17.70;99.90;;;;;;7409172;19;19915;-32
2022/11/23 02:37:55;;;;;;;0.70;0.15;;;17.80;99.90;;;;;;7409479;19;19937;-32
2022/11/23 02:40:36;;;;;;;1.05;0.60;;;17.70;99.90;;;;;;7410020;19;19929;-32
2022/11/23 02:43:12;;;;;;;0.70;0.20;;;17.70;99.90;;;;;;7411640;19;20535;-32
2022/11/23 02:46:04;;;;;;;1.10;0.52;;;17.70;99.90;;;;;;7407629;19;19922;-32
2022/11/23 02:48:53;;;;;;;0.70;0.13;;;17.70;99.90;;;;;;7406746;19;19922;-33
2022/11/23 02:51:42;;;;;;;0.77;0.25;;;17.70;99.90;;;;;;7407948;19;19919;-32
2022/11/23 02:54:11;;;;;;;2.08;0.50;;;17.70;99.90;;;;;;7410204;19;19935;-32
2022/11/23 02:56:45;;;;;;;0.82;0.50;;;17.70;99.90;;;;;;7409321;19;19961;-32
2022/11/23 02:59:17;;;;;;;0.63;0.50;;;17.70;99.90;;;;;;7409787;19;19944;-32
2022/11/23 03:01:48;;;;;;;1.10;0.22;;;17.70;99.90;;;;;;7412174;19;19981;-32
2022/11/23 03:04:19;;;;;;;0.70;0.50;;;17.70;99.90;;;;;;7408512;19;19918;-32
2022/11/23 03:06:49;;;;;;;;;;;17.70;99.90;;;;;;7412442;19;19926;-32
2022/11/23 03:09:19;;;;;;;1.48;0.45;;;17.60;99.90;;;;;;7408615;19;19934;-32
2022/11/23 03:11:48;;;;;;;0.80;0.55;;;17.70;99.90;;;;;;7409757;19;19925;-32
2022/11/23 03:14:20;;;;;;;1.05;0.40;;;17.60;99.90;;;;;;7410147;19;19931;-32
2022/11/23 03:16:50;;;;;;;0.55;0.10;;;17.60;99.90;;;;;;7409492;19;19920;-32
2022/11/23 03:19:27;;;;;;;1.00;0.90;;;17.60;99.90;;;;;;7407661;19;19923;-32
2022/11/23 03:22:01;;;;;;;1.52;0.35;;;17.60;99.90;;;;;;7411958;19;19960;-32
2022/11/23 03:24:30;;;;;;;0.40;0.20;;;17.60;99.90;;;;;;7408193;19;20318;-32
2022/11/23 03:27:00;;;;;;;0.60;0.38;;;17.60;99.90;;;;;;7410006;19;19918;-32
2022/11/23 03:29:31;;;;;;;0.63;0.13;;;17.60;99.90;;;;;;7409568;19;19914;-32
2022/11/23 03:32:01;;;;;;;0.85;0.40;;;17.60;99.90;;;;;;7406860;19;19930;-32
2022/11/23 03:34:30;;;;;;;1.08;0.40;;;17.60;99.90;;;;;;7410940;19;19925;-32
2022/11/23 03:37:00;;;;;;;1.25;1.15;;;17.60;99.90;;;;;;7407647;19;19978;-32
2022/11/23 03:39:29;;;;;;;0.43;0.10;;;17.60;99.90;;;;;;7410383;19;20252;-32
2022/11/23 03:41:59;;;;;;;1.10;0.40;;;17.60;99.90;;;;;;7409408;19;19922;-32
2022/11/23 03:44:30;;;;;;;1.27;0.40;;;17.60;99.90;;;;;;7406844;19;19986;-32
2022/11/23 03:47:00;;;;;;;1.02;0.40;;;17.60;99.90;;;;;;7409974;19;19921;-32
2022/11/23 03:49:29;;;;;;;0.73;0.40;;;17.60;99.90;;;;;;7406504;19;19922;-32
2022/11/23 03:51:58;;;;;;;0.88;0.50;;;17.60;99.90;;;;;;7407191;19;19943;-32
2022/11/23 03:54:27;;;;;;;0.40;0.10;;;17.50;99.90;;;;;;7406870;19;20238;-32
2022/11/23 03:56:56;;;;;;;0.80;0.22;;;17.60;99.90;;;;;;7406305;19;19914;-32
2022/11/23 03:59:25;;;;;;;1.52;0.52;;;17.60;99.90;;;;;;7406616;19;19939;-32
2022/11/23 04:01:56;;;;;;;0.73;0.20;;;17.50;99.90;;;;;;7409479;19;19934;-32
2022/11/23 04:04:28;;;;;;;0.75;0.32;;;17.50;99.90;;;;;;7406852;19;19915;-32
2022/11/23 04:06:57;;;;;;;0.50;0.15;;;17.50;99.90;;;;;;7404971;19;20367;-32
2022/11/23 04:09:26;;;;;;;1.50;0.50;;;17.50;99.90;;;;;;7409622;19;19925;-32
2022/11/23 04:11:56;;;;;;;0.88;0.50;;;17.50;99.90;;;;;;7405031;19;19939;-32
2022/11/23 04:14:25;;;;;;;1.65;0.60;;;17.50;99.90;;;;;;7406753;19;19907;-32
2022/11/23 04:17:03;;;;;;;0.95;0.45;;;17.50;99.90;;;;;;7409085;19;19926;-32
2022/11/23 04:19:37;;;;;;;1.05;0.55;;;17.50;99.90;;;;;;7407786;19;19943;-33
2022/11/23 04:22:09;;;;;;;0.90;0.40;;;17.50;99.90;;;;;;7406563;19;19918;-33
2022/11/23 04:24:45;;;;;;;0.68;0.10;;;17.50;99.90;;;;;;7408112;19;19929;-32
2022/11/23 04:27:14;;;;;;;1.77;0.63;;;17.50;99.90;;;;;;7406969;19;19911;-32
2022/11/23 04:29:43;;;;;;;0.95;0.70;;;17.50;99.90;;;;;;7405847;19;19915;-32
2022/11/23 04:32:17;;;;;;;0.55;0.30;;;17.50;99.90;;;;;;7408799;19;19922;-32
2022/11/23 04:34:47;;;;;;;1.00;0.47;;;17.50;99.90;;;;;;7408210;19;19922;-32
2022/11/23 04:37:22;;;;;;;0.85;0.13;;;17.50;99.90;;;;;;7408963;19;19994;-32
2022/11/23 04:39:51;;;;;;;0.60;0.20;;;17.40;99.90;;;;;;7406022;19;19935;-32
2022/11/23 04:42:21;;;;;;;0.60;0.22;;;17.50;99.90;;;;;;7405530;19;19925;-32
2022/11/23 04:44:50;;;;;;;0.30;0.03;;;17.50;99.90;;;;;;7404600;19;20360;-31
2022/11/23 04:47:23;;;;;;;1.58;0.88;;;17.40;99.90;;;;;;7406009;19;20408;-32
2022/11/23 04:49:52;;;;;;;0.75;0.75;;;17.40;99.90;;;;;;7403891;19;19925;-32
2022/11/23 04:52:21;;;;;;;0.90;0.52;;;17.40;99.90;;;;;;7404850;19;20352;-32
2022/11/23 04:54:50;;;;;;;1.00;0.32;;;17.40;99.90;;;;;;7409968;19;19922;-32
2022/11/23 04:57:20;;;;;;;1.13;1.02;;;17.40;99.90;;;;;;7403839;19;19914;-32
2022/11/23 04:59:49;;;;;;;0.77;0.22;;;17.40;99.90;;;;;;7405106;19;20267;-31
2022/11/23 05:02:18;;;;;;;0.75;0.47;;;17.40;99.90;;;;;;7408762;19;20005;-32
2022/11/23 05:04:50;;;;;;;0.70;0.20;;;17.40;99.90;;;;;;7408546;19;20281;-32
2022/11/23 05:07:19;;;;;;;0.95;0.50;;;17.40;99.90;;;;;;7402953;19;20299;-31
2022/11/23 05:09:48;;;;;;;1.20;0.57;;;17.40;99.90;;;;;;7404265;19;19926;-32
2022/11/23 05:12:18;;;;;;;2.67;0.50;;;17.40;99.90;;;;;;7404502;19;19939;-32
2022/11/23 05:14:48;;;;;;;0.90;0.40;;;17.40;99.90;;;;;;7408146;19;19970;-32
2022/11/23 05:17:18;;;;;;;0.75;0.35;;;17.40;99.90;;;;;;7404938;19;19919;-32
2022/11/23 05:19:55;;;;;;;1.00;0.63;;;17.40;99.90;;;;;;7404405;19;20663;-32
2022/11/23 05:22:25;;;;;;;1.00;0.90;;;17.40;99.90;;;;;;7405097;19;19922;-32
2022/11/23 05:24:54;;;;;;;1.00;0.43;;;17.40;99.90;;;;;;7404628;19;19914;-32
2022/11/23 05:27:23;;;;;;;0.73;0.10;;;17.40;99.90;;;;;;7404844;19;20319;-32
2022/11/23 05:29:53;;;;;;;0.90;0.60;;;17.40;99.90;;;;;;7407243;19;19918;-32
2022/11/23 05:32:26;;;;;;;1.08;0.60;;;17.30;99.90;;;;;;7404210;19;19914;-32
2022/11/23 05:34:57;;;;;;;0.70;0.35;;;17.30;99.90;;;;;;7402608;19;19930;-32
2022/11/23 05:37:26;;;;;;;0.70;0.40;;;17.40;99.90;;;;;;7405727;19;19935;-32
2022/11/23 05:39:56;;;;;;;1.00;0.40;;;17.30;99.90;;;;;;7406144;19;19989;-32
2022/11/23 05:42:25;;;;;;;0.70;0.30;;;17.30;99.90;;;;;;7403249;19;19914;-32
2022/11/23 05:44:54;;;;;;;1.02;0.50;;;17.30;99.90;;;;;;7405379;19;19997;-32
2022/11/23 05:47:23;;;;;;;0.80;0.20;;;17.30;99.90;;;;;;7404937;19;19982;-32
2022/11/23 05:49:57;;;;;;;0.73;0.20;;;17.30;99.90;;;;;;7406231;19;19983;-32
2022/11/23 05:52:38;;;;;;;1.05;0.47;;;17.30;99.90;;;;;;7403467;19;19922;-32
2022/11/23 05:55:12;;;;;;;0.70;0.47;;;17.30;99.90;;;;;;7403356;19;19939;-32
2022/11/23 05:57:50;;;;;;;0.85;0.40;;;17.30;99.90;;;;;;7401340;19;20361;-32
2022/11/23 06:00:22;;;;;;;0.90;0.22;;;17.30;99.90;;;;;;7405277;19;19915;-32
2022/11/23 06:02:52;;;;;;;1.00;0.55;;;17.30;99.90;;;;;;7405373;19;19923;-32
2022/11/23 06:05:23;;;;;;;0.52;0.22;;;17.30;99.90;;;;;;7403076;19;19915;-32
2022/11/23 06:07:57;;;;;;;1.17;0.60;;;17.30;99.90;;;;;;7404275;19;19917;-31
2022/11/23 06:10:37;;;;;;;0.93;0.13;;;17.30;99.90;;;;;;7401822;19;19950;-32
2022/11/23 06:13:07;;;;;;;0.85;0.50;;;17.30;99.90;;;;;;7404590;19;19926;-31
2022/11/23 06:15:36;;;;;;;0.70;0.32;;;17.30;99.90;;;;;;7402895;19;20000;-32
2022/11/23 06:18:08;;;;;;;0.77;0.10;;;17.30;99.90;;;;;;7403269;19;20270;-32
2022/11/23 06:20:42;;;;;;;0.60;0.20;;;17.30;99.90;;;;;;7406419;19;19919;-31
2022/11/23 06:23:12;;;;;;;0.43;0.25;;;17.30;99.90;;;;;;7402073;19;19922;-32
2022/11/23 06:25:41;;;;;;;0.60;0.40;;;17.30;99.90;;;;;;7402585;19;19966;-31
2022/11/23 06:28:21;;;;;;;0.68;0.20;;;17.30;99.90;;;;;;7402175;19;19918;-32
2022/11/23 06:30:50;;;;;;;0.47;0.13;;;17.30;99.90;;;;;;7404489;19;20364;-31
2022/11/23 06:33:24;;;;;;;1.50;0.35;;;17.30;99.90;;;;;;7402209;19;19951;-31
2022/11/23 06:36:01;;;;;;;0.73;0.57;;;17.30;99.90;;;;;;7403339;19;19922;-32
2022/11/23 06:38:30;;;;;;;3.97;0.57;;;17.30;99.90;;;;;;7405265;19;19915;-32
2022/11/23 06:41:04;;;;;;;0.70;0.20;;;17.30;99.90;;;;;;7403611;19;20290;-32
2022/11/23 06:43:51;;;;;;;0.95;0.38;;;17.30;99.90;;;;;;7402325;19;19987;-32
2022/11/23 06:46:20;;;;;;;1.10;1.00;;;17.20;99.90;;;;;;7402364;19;19914;-32
2022/11/23 06:48:51;;;;;;;0.85;0.40;;;17.30;99.90;;;;;;7402300;19;19914;-32
2022/11/23 06:51:22;;;;;;;0.57;0.28;;;17.30;99.90;;;;;;7400953;19;19915;-32
2022/11/23 06:53:53;;;;;;;0.55;0.22;;;17.20;99.90;;;;;;7405826;19;19922;-32
2022/11/23 06:56:22;;;;;;;1.13;0.73;;;17.20;99.90;;;;;;7403310;19;19935;-32
2022/11/23 06:58:51;;;;;;;0.70;0.40;;;17.20;99.90;;;;;;7404357;19;19915;-32
2022/11/23 07:01:20;;;;;;;1.55;0.40;;;17.30;99.90;;;;;;7403879;19;19943;-32
2022/11/23 07:03:50;;;;;;;1.00;0.35;;;17.20;99.90;;;;;;7400196;19;20258;-32
2022/11/23 07:06:22;;;;;;;;;;;17.20;99.90;;;;;;7402247;19;19918;-32
2022/11/23 07:08:51;;;;;;;1.17;0.50;;;17.20;99.90;;;;;;7400138;19;19958;-32
2022/11/23 07:11:20;;;;;;;1.42;0.30;;;17.20;99.90;;;;;;7399399;19;19929;-32
2022/11/23 07:13:50;;;;;;;1.20;0.35;;;17.20;99.90;;;;;;7403385;19;20242;-37
2022/11/23 07:16:19;;;;;;;0.90;0.45;;;17.20;99.90;;;;;;7410913;19;19922;-38
2022/11/23 07:18:48;;;;;;;1.20;0.55;;;17.30;99.90;;;;;;7411187;19;19923;-41
2022/11/23 07:21:21;;;;;;;1.98;0.20;;;17.30;99.90;;;;;;7406686;19;19918;-40
2022/11/23 07:23:51;;;;;;;2.67;0.30;;;17.30;99.90;;;;;;7407472;19;19915;-40
2022/11/23 07:26:20;;;;;;;;;;;17.30;99.90;;;;;;7409608;19;19923;-41
2022/11/23 07:28:49;;;;;;;1.27;0.35;;;17.30;99.90;;;;;;7407968;19;19923;-41
2022/11/23 07:31:20;;;;;;;1.92;0.98;;;17.30;99.90;;;;;;7405661;19;19921;-40
2022/11/23 07:33:55;;;;;;;1.20;0.40;;;17.20;99.90;;;;;;7407267;19;19941;-41
2022/11/23 07:36:27;;;;;;;0.98;0.40;;;17.30;99.90;;;;;;7407417;19;19915;-38
2022/11/23 07:38:56;;;;;;;0.95;0.32;;;17.30;99.90;;;;;;7407900;19;19925;-40
2022/11/23 07:41:26;;;;;;;1.30;0.40;;;17.30;99.90;;;;;;7407250;19;19918;-40
2022/11/23 07:43:55;;;;;;;1.63;0.20;;;17.20;99.90;;;;;;7407195;19;19922;-40
2022/11/23 07:46:24;;;;;;;1.02;0.10;;;17.30;99.90;;;;;;7407947;19;19926;-39
2022/11/23 07:49:00;;;;;;;1.20;0.75;;;17.30;99.90;;;;;;7406609;19;19922;-39
2022/11/23 07:51:32;;;;;;;1.25;0.50;;;17.20;99.90;;;;;;7405315;19;19982;-39
2022/11/23 07:54:02;;;;;;;1.30;0.30;;;17.20;99.90;;;;;;7407402;19;19929;-40
2022/11/23 07:56:33;;;;;;;1.08;0.50;;;17.20;99.90;;;;;;7406053;19;19915;-40
2022/11/23 07:59:02;;;;;;;0.98;0.35;;;17.20;99.90;;;;;;7407481;19;19922;-39
2022/11/23 08:01:36;;;;;;;0.90;0.25;;;17.20;99.90;;;;;;7407075;19;20288;-40
2022/11/23 08:04:07;;;;;;;1.77;0.68;;;17.20;99.90;;;;;;7406954;19;19914;-39
2022/11/23 08:06:42;;;;;;;0.75;0.50;;;17.20;99.90;;;;;;7405717;19;19924;-41
2022/11/23 08:09:12;;;;;;;0.88;0.35;;;17.20;99.90;;;;;;7406797;19;20597;-40
2022/11/23 08:11:42;;;;;;;1.38;0.30;;;17.20;99.90;;;;;;7405607;19;19914;-39
2022/11/23 08:14:12;;;;;;;1.45;0.20;;;17.20;99.90;;;;;;7406371;19;22325;-42
2022/11/23 08:16:41;;;;;;;1.02;0.50;;;17.20;99.90;;;;;;7406233;19;19919;-40
2022/11/23 08:19:11;;;;;;;1.58;0.50;;;17.20;99.90;;;;;;7407388;19;19936;-40
2022/11/23 08:21:46;;;;;;;0.70;0.40;;;17.20;99.90;;;;;;7405247;19;19956;-39
2022/11/23 08:24:15;;;;;;;1.30;0.30;;;17.20;99.90;;;;;;7406206;19;19918;-42
2022/11/23 08:26:44;;;;;;;1.30;0.50;;;17.20;99.90;;;;;;7405502;19;19918;-40
2022/11/23 08:29:13;;;;;;;0.90;0.90;;;17.20;99.90;;;;;;7406219;19;19919;-40
2022/11/23 08:31:44;;;;;;;1.65;0.40;;;17.30;99.90;;;;;;7404458;19;19935;-39
2022/11/23 08:34:13;;;;;;;0.90;0.45;;;17.20;99.90;;;;;;7405909;19;19922;-40
2022/11/23 08:36:45;;;;;;;0.82;0.40;;;17.20;99.90;;;;;;7406667;19;19923;-39
2022/11/23 08:39:18;;;;;;;1.60;0.30;;;17.20;99.90;;;;;;7405551;19;19918;-40
2022/11/23 08:41:48;;;;;;;0.70;0.50;;;17.20;99.90;;;;;;7405827;19;19914;-40
2022/11/23 08:44:19;;;;;;;2.15;0.63;;;17.20;99.90;;;;;;7405039;19;19935;-41
2022/11/23 08:46:48;;;;;;;0.80;0.30;;;17.20;99.90;;;;;;7405809;19;20297;-40
2022/11/23 08:49:21;;;;;;;1.02;0.45;;;17.20;99.90;;;;;;7405722;19;19951;-40
2022/11/23 08:51:53;;;;;;;0.60;0.10;;;17.20;99.90;;;;;;7404124;19;19925;-40
2022/11/23 08:54:23;;;;;;;0.95;0.30;;;17.20;99.90;;;;;;7405351;19;19919;-40
2022/11/23 08:56:52;;;;;;;1.10;0.22;;;17.30;99.90;;;;;;7404400;19;19922;-40
2022/11/23 08:59:21;;;;;;;0.88;0.55;;;17.30;99.90;;;;;;7407727;19;19922;-40
2022/11/23 09:01:50;;;;;;;0.77;0.30;;;17.30;99.90;;;;;;7405527;19;19913;-39
2022/11/23 09:04:18;;;;;;;1.40;0.63;;;17.30;99.90;;;;;;7405197;19;19915;-40
2022/11/23 09:06:48;;;;;;;0.98;0.40;;;17.30;99.90;;;;;;7404264;19;19927;-40
2022/11/23 09:09:19;;;;;;;0.70;0.50;;;17.30;99.90;;;;;;7405240;19;19932;-40
2022/11/23 09:11:48;;;;;;;1.35;0.63;;;17.30;99.90;;;;;;7403733;19;19952;-40
2022/11/23 09:14:17;;;;;;;0.70;0.40;;;17.30;99.90;;;;;;7405957;19;19925;-40
2022/11/23 09:16:46;;;;;;;0.85;0.25;;;17.30;99.90;;;;;;7404875;19;20302;-39
2022/11/23 09:19:15;;;;;;;1.15;0.22;;;17.30;99.90;;;;;;7404551;19;19910;-39
2022/11/23 09:21:45;;;;;;;1.40;0.50;;;17.30;99.90;;;;;;7402473;19;19919;-39
2022/11/23 09:24:14;;;;;;;0.73;0.20;;;17.30;99.90;;;;;;7404381;19;19978;-40
2022/11/23 09:26:46;;;;;;;0.88;0.50;;;17.40;99.90;;;;;;7403931;19;19918;-41
2022/11/23 09:29:15;;;;;;;1.15;0.50;;;17.40;99.90;;;;;;7404312;19;19982;-39
2022/11/23 09:31:44;;;;;;;0.95;0.45;;;17.30;99.90;;;;;;7401913;19;19929;-39
2022/11/23 09:34:14;;;;;;;1.38;0.85;;;17.40;99.90;;;;;;7404415;19;19931;-39
2022/11/23 09:36:43;;;;;;;1.08;0.10;;;17.40;99.90;;;;;;7403691;19;20254;-39
2022/11/23 09:39:13;;;;;;;1.05;0.40;;;17.40;99.90;;;;;;7404110;19;19926;-39
2022/11/23 09:41:56;;;;;;;;;;;17.40;99.90;;;;;;7405984;19;19910;-38
2022/11/23 09:44:34;;;;;;;0.90;0.40;;;17.40;99.90;;;;;;7404756;19;19938;-39
2022/11/23 09:47:16;;;;;;;1.13;0.30;;;17.40;99.90;;;;;;7404083;19;19953;-39
2022/11/23 09:49:52;;;;;;;1.05;0.50;;;17.40;99.90;;;;;;7402425;19;19931;-40
2022/11/23 09:52:24;;;;;;;0.88;0.30;;;17.40;99.90;;;;;;7402929;19;19918;-38
2022/11/23 09:54:56;;;;;;;0.93;0.32;;;17.40;99.90;;;;;;7403411;19;19915;-41
2022/11/23 09:57:32;;;;;;;1.75;0.30;;;17.40;99.90;;;;;;7404982;19;19986;-41
2022/11/23 10:00:04;;;;;;;0.98;0.50;;;17.40;99.90;;;;;;7403506;19;19922;-40
2022/11/23 10:02:36;;;;;;;0.98;0.40;;;17.40;99.90;;;;;;7403556;19;19966;-39
2022/11/23 10:05:07;;;;;;;0.80;0.40;;;17.40;99.90;;;;;;7406349;19;19929;-41
2022/11/23 10:07:47;;;;;;;1.45;0.50;;;17.40;99.90;;;;;;7401734;19;20322;-39
2022/11/23 10:10:33;;;;;;;1.50;0.60;;;17.40;99.90;;;;;;7403690;19;19918;-40
2022/11/23 10:13:14;;;;;;;1.55;0.73;;;17.40;99.90;;;;;;7403589;19;19982;-39
2022/11/23 10:15:54;;;;;;;1.70;0.45;;;17.40;99.90;;;;;;7402491;19;19926;-40
2022/11/23 10:18:35;;;;;;;1.55;0.50;;;17.30;99.90;;;;;;7403859;19;19923;-40
2022/11/23 10:21:12;;;;;;;1.00;0.40;;;17.30;99.90;;;;;;7404378;19;19963;-40
2022/11/23 10:23:54;;;;;;;1.30;0.70;;;17.40;99.90;;;;;;7405991;19;19934;-39
2022/11/23 10:26:30;;;;;;;1.73;0.38;;;17.40;99.90;;;;;;7403510;19;19929;-39
2022/11/23 10:29:14;;;;;;;0.85;0.30;;;17.40;99.90;;;;;;7402514;19;19918;-40
2022/11/23 10:31:48;;;;;;;0.93;0.40;;;17.40;99.90;;;;;;7401864;19;19915;-41
2022/11/23 10:34:23;;;;;;;1.45;0.43;;;17.40;99.90;;;;;;7402245;19;20332;-40
2022/11/23 10:36:52;;;;;;;2.63;0.45;;;17.30;99.90;;;;;;7402001;19;19923;-41
2022/11/23 10:39:24;;;;;;;1.00;0.40;;;17.40;99.90;;;;;;7402168;19;19982;-41
2022/11/23 10:41:54;;;;;;;1.65;0.80;;;17.30;99.90;;;;;;7403739;19;19930;-40
2022/11/23 10:44:37;;;;;;;1.67;1.58;;;17.30;99.90;;;;;;7402037;19;19922;-40
2022/11/23 10:47:06;;;;;;;1.70;0.70;;;17.30;99.90;;;;;;7402260;19;19922;-40
2022/11/23 10:49:36;;;;;;;;;;;17.40;99.90;;;;;;7407940;19;19923;-40
2022/11/23 10:52:07;;;;;;;2.45;0.17;;;17.40;99.90;;;;;;7406044;19;20256;-40
2022/11/23 10:54:40;;;;;;;1.83;0.10;;;17.40;99.90;;;;;;7294270;19;19929;-41
2022/11/23 10:57:31;;;;;;;1.70;0.50;;;17.50;99.90;;;;;;7410455;19;19923;-38
2022/11/23 11:00:05;;;;;;;1.17;0.45;;;17.60;99.90;;;;;;7409962;19;20023;-39
2022/11/23 11:02:41;;;;;;;0.70;0.20;;;17.60;99.90;;;;;;7408212;19;19910;-40
2022/11/23 11:05:26;;;;;;;1.40;0.20;;;17.70;99.90;;;;;;7408169;19;19915;-44
2022/11/23 11:07:57;;;;;;;2.80;0.60;;;18.00;99.90;;;;;;7406625;19;19915;-46
2022/11/23 11:10:39;;;;;;;1.60;0.80;;;18.20;99.90;;;;;;7407242;19;19931;-46
2022/11/23 11:13:27;;;;;;;1.20;0.43;;;18.30;99.90;;;;;;7409157;19;19918;-42
2022/11/23 11:16:01;;;;;;;1.45;0.50;;;18.50;99.90;;;;;;7406228;19;19996;-44
2022/11/23 11:18:32;;;;;;;1.13;0.32;;;18.60;99.90;;;;;;7407411;19;19933;-44
2022/11/23 11:21:05;;;;;;;1.40;0.50;;;18.80;99.90;;;;;;7409625;19;19933;-43
2022/11/23 11:23:35;;;;;;;2.58;0.65;;;18.90;99.90;;;;;;7407927;19;19921;-43
2022/11/23 11:26:08;;;;;;;2.25;0.50;;;19.10;99.90;;;;;;7411816;19;19918;-42
2022/11/23 11:28:41;;;;;;;1.45;0.40;;;19.20;99.90;;;;;;7407474;19;19921;-44
2022/11/23 11:31:40;;;;;;;1.23;0.45;;;19.30;99.90;;;;;;7407058;19;20333;-43
2022/11/23 11:34:21;;;;;;;1.40;0.50;;;19.40;99.90;;;;;;7407228;19;19929;-43
2022/11/23 11:36:57;;;;;;;1.55;0.52;;;19.50;99.90;;;;;;7409129;19;19919;-42
2022/11/23 11:39:31;;;;;;;1.83;1.00;;;19.60;99.90;;;;;;7407038;19;19914;-46
2022/11/23 11:42:04;;;;;;;0.95;0.35;;;19.70;99.90;;;;;;7409298;19;19950;-46
2022/11/23 11:44:36;;;;;;;0.80;0.25;;;19.80;99.90;;;;;;7407006;19;19911;-44
2022/11/23 11:47:14;;;;;;;1.98;0.40;;;19.90;99.90;;;;;;7406825;19;19989;-43
2022/11/23 11:49:49;;;;;;;2.03;0.32;;;20.00;99.90;;;;;;7409642;19;20327;-45
2022/11/23 11:52:22;;;;;;;1.95;0.45;;;20.00;99.90;;;;;;7409204;19;19919;-46
2022/11/23 11:54:57;;;;;;;2.17;0.65;;;20.20;99.90;;;;;;7408796;19;19911;-47
2022/11/23 11:57:31;;;;;;;1.20;0.40;;;20.30;99.90;;;;;;7409509;19;19994;-44
2022/11/23 12:00:01;;;;;;;1.10;0.22;;;20.40;99.90;;;;;;7409934;19;19919;-45
2022/11/23 12:02:35;;;;;;;1.08;0.22;;;20.50;99.90;;;;;;7406164;19;19910;-46
2022/11/23 12:05:15;;;;;;;2.78;0.82;;;20.60;99.90;;;;;;7406139;19;20333;-47
2022/11/23 12:07:51;;;;;;;1.77;0.40;;;20.60;99.90;;;;;;7409956;19;20464;-44
2022/11/23 12:10:26;;;;;;;2.67;0.52;;;20.70;99.90;;;;;;7407558;19;19922;-44
2022/11/23 12:12:58;;;;;;;1.83;0.30;;;20.80;99.90;;;;;;7405062;19;19922;-45
2022/11/23 12:15:37;;;;;;;1.83;0.32;;;20.80;99.90;;;;;;7407218;19;20298;-44
2022/11/23 12:18:30;;;;;;;1.55;0.40;;;20.90;99.90;;;;;;7405370;19;19925;-44
2022/11/23 12:21:06;;;;;;;2.00;0.73;;;20.90;99.90;;;;;;7405886;19;19970;-46
2022/11/23 12:23:50;;;;;;;1.63;0.63;;;20.90;99.90;;;;;;7408312;19;19911;-45
2022/11/23 12:26:28;;;;;;;1.42;0.50;;;21.00;99.90;;;;;;7405775;19;19968;-47
2022/11/23 12:29:16;;;;;;;2.28;0.50;;;21.00;99.90;;;;;;7406811;19;19929;-46
2022/11/23 12:31:50;;;;;;;1.45;0.65;;;21.10;99.90;;;;;;7408028;19;20347;-48
2022/11/23 12:34:36;;;;;;;1.35;0.50;;;21.00;99.90;;;;;;7408567;19;19914;-47
2022/11/23 12:37:33;;;;;;;1.73;0.25;;;21.10;99.90;;;;;;7405069;19;20316;-46
2022/11/23 12:40:31;;;;;;;1.48;0.63;;;21.10;99.90;;;;;;7405306;19;19918;-47
2022/11/23 12:43:04;;;;;;;1.25;0.50;;;21.10;99.90;;;;;;7405214;19;19923;-48
2022/11/23 12:45:47;;;;;;;1.10;0.50;;;21.10;99.90;;;;;;7409996;19;19911;-48
2022/11/23 12:48:34;;;;;;;1.45;0.22;;;21.10;99.90;;;;;;7407454;19;19922;-44
2022/11/23 12:51:15;;;;;;;1.30;0.22;;;21.10;99.90;;;;;;7409429;19;20272;-46
2022/11/23 12:53:56;;;;;;;1.25;0.40;;;21.10;99.90;;;;;;7406155;19;19997;-45
2022/11/23 12:56:45;;;;;;;1.63;0.50;;;21.10;99.90;;;;;;7406578;19;19923;-48
2022/11/23 12:59:15;;;;;;;1.15;0.40;;;21.10;99.90;;;;;;7405373;19;19936;-45
2022/11/23 13:01:49;;;;;;;0.70;0.22;;;21.00;99.90;;;;;;7404737;19;20375;-46
2022/11/23 13:04:39;;;;;;;1.42;0.22;;;21.10;99.90;;;;;;7404645;19;20261;-46
2022/11/23 13:07:39;;;;;;;1.25;0.43;;;21.10;99.90;;;;;;7406211;19;20340;-48
2022/11/23 13:10:29;;;;;;;1.15;0.47;;;21.10;99.90;;;;;;7403988;19;19970;-44
2022/11/23 13:13:29;;;;;;;1.10;0.32;;;21.00;99.90;;;;;;7405663;19;19911;-48
2022/11/23 13:16:17;;;;;;;1.23;0.57;;;21.00;99.90;;;;;;7404859;19;19926;-49
2022/11/23 13:18:57;;;;;;;1.35;0.60;;;21.00;99.90;;;;;;7404390;19;19915;-48